createdAt,value
2022-08-29T14:07:03.944Z,2.50
2022-08-29T14:09:44.374Z,6.88
2022-08-29T14:12:16.840Z,3.53
2022-08-29T14:14:48.662Z,2.70
2022-08-29T14:17:21.245Z,2.40
2022-08-29T14:19:51.973Z,2.63
2022-08-29T14:22:22.683Z,3.60
2022-08-29T14:24:55.562Z,2.97
2022-08-29T14:27:26.239Z,2.80
2022-08-29T14:29:57.074Z,3.40
2022-08-29T14:32:28.378Z,3.10
2022-08-29T14:34:59.000Z,2.60
2022-08-29T14:37:29.793Z,2.67
2022-08-29T14:40:00.637Z,2.60
2022-08-29T14:42:31.633Z,2.13
2022-08-29T14:45:02.262Z,2.37
2022-08-29T14:47:33.087Z,2.50
2022-08-29T14:50:03.602Z,4.37
2022-08-29T14:52:34.562Z,3.08
2022-08-29T14:55:05.173Z,2.53
2022-08-29T14:57:35.909Z,2.77
2022-08-29T15:00:28.185Z,2.70
2022-08-29T15:08:04.332Z,2.90
2022-08-29T15:10:37.659Z,2.88
2022-08-29T15:13:09.922Z,2.70
2022-08-29T15:15:40.916Z,2.85
2022-08-29T15:18:30.523Z,2.83
2022-08-29T15:21:04.199Z,2.70
2022-08-29T15:23:36.548Z,3.00
2022-08-29T15:26:07.341Z,2.95
2022-08-29T15:28:38.007Z,2.50
2022-08-29T15:31:08.726Z,3.00
2022-08-29T15:33:39.420Z,2.97
2022-08-29T15:36:10.813Z,3.37
2022-08-29T15:38:41.616Z,3.00
2022-08-29T15:41:12.301Z,3.30
2022-08-29T15:43:43.064Z,3.60
2022-08-29T15:46:14.178Z,3.33
2022-08-29T15:48:44.813Z,3.17
2022-08-29T15:51:15.630Z,3.72
2022-08-29T15:53:46.355Z,2.83
2022-08-29T15:56:16.898Z,3.23
2022-08-29T15:58:47.624Z,3.23
2022-08-29T16:01:19.971Z,3.47
2022-08-29T16:03:50.740Z,3.20
2022-08-29T16:06:21.388Z,3.90
2022-08-29T16:08:55.426Z,3.70
2022-08-29T18:55:51.073Z,7.82
2022-08-29T18:58:29.911Z,8.63
2022-08-29T19:01:02.189Z,7.85
2022-08-29T19:03:32.717Z,7.90
2022-08-29T19:06:03.360Z,9.07
2022-08-29T19:08:34.924Z,9.37
2022-08-29T19:11:06.458Z,8.40
2022-08-29T19:13:38.575Z,9.43
2022-08-29T19:16:12.346Z,10.02
2022-08-29T19:18:43.369Z,10.88
2022-08-29T19:21:14.012Z,9.73
2022-08-29T19:23:52.372Z,9.73
2022-08-29T19:26:26.905Z,8.52
2022-08-29T19:28:59.511Z,9.45
2022-08-29T19:34:01.883Z,9.48
2022-08-29T19:36:32.493Z,9.75
2022-08-29T19:39:03.309Z,10.07
2022-08-29T19:41:37.472Z,9.43
2022-08-29T19:44:08.144Z,9.70
2022-08-29T19:46:38.783Z,9.50
2022-08-29T19:49:09.501Z,9.35
2022-08-29T19:51:40.753Z,10.00
2022-08-29T19:54:12.613Z,10.82
2022-08-29T19:56:46.835Z,11.20
2022-08-29T19:59:17.860Z,9.93
2022-08-29T20:01:49.718Z,11.07
2022-08-29T20:06:50.971Z,9.32
2022-08-29T20:09:21.731Z,10.53
2022-08-29T20:11:56.125Z,10.52
2022-08-29T20:14:26.832Z,10.75
2022-08-29T20:16:57.722Z,10.35
2022-08-29T20:19:29.592Z,9.60
2022-08-29T20:22:00.262Z,9.77
2022-08-29T20:24:30.799Z,10.50
2022-08-29T20:27:01.743Z,9.67
2022-08-29T20:29:32.756Z,10.00
2022-08-29T20:32:04.519Z,9.93
2022-08-29T20:34:35.166Z,10.57
2022-08-29T20:37:11.656Z,10.30
2022-08-29T20:39:45.495Z,10.38
2022-08-29T20:42:18.334Z,9.82
2022-08-29T20:44:49.518Z,9.32
2022-08-29T20:49:53.535Z,9.77
2022-08-29T20:52:26.856Z,9.85
2022-08-29T20:54:57.591Z,10.80
2022-08-29T20:57:28.285Z,9.50
2022-08-29T20:59:58.831Z,9.20
2022-08-29T21:02:47.944Z,10.07
2022-08-29T21:05:37.282Z,9.27
2022-08-29T21:08:08.107Z,9.50
2022-08-29T21:10:38.881Z,9.40
2022-08-29T21:13:09.950Z,8.38
2022-08-29T21:15:42.464Z,8.18
2022-08-29T21:18:15.808Z,8.77
2022-08-29T21:20:54.631Z,9.10
2022-08-29T21:23:27.753Z,9.38
2022-08-29T21:26:00.898Z,8.88
2022-08-29T21:28:35.567Z,8.70
2022-08-29T21:31:14.601Z,8.05
2022-08-29T21:33:48.236Z,7.35
2022-08-29T21:36:22.739Z,8.35
2022-08-29T21:39:00.660Z,8.00
2022-08-29T21:41:33.685Z,8.88
2022-08-29T21:44:04.445Z,9.60
2022-08-29T21:46:38.609Z,9.20
2022-08-29T21:49:10.534Z,9.27
2022-08-29T21:51:41.493Z,9.23
2022-08-29T21:54:13.731Z,8.90
2022-08-29T21:56:45.896Z,9.27
2022-08-29T21:59:19.166Z,9.13
2022-08-29T22:01:54.605Z,9.38
2022-08-29T22:04:28.105Z,9.65
2022-08-29T22:07:01.764Z,8.73
2022-08-29T22:09:33.599Z,9.32
2022-08-29T22:12:06.436Z,8.73
2022-08-29T22:14:55.226Z,8.60
2022-08-29T22:17:26.298Z,9.07
2022-08-29T22:19:57.023Z,8.95
2022-08-29T22:22:28.710Z,9.02
2022-08-29T22:24:59.511Z,9.98
2022-08-29T22:27:30.144Z,9.60
2022-08-29T22:30:03.679Z,9.73
2022-08-29T22:32:35.505Z,10.32
2022-08-29T22:35:08.626Z,9.73
2022-08-29T22:37:39.569Z,11.18
2022-08-29T22:40:15.250Z,11.57
2022-08-29T22:42:47.536Z,12.43
2022-08-29T22:45:21.270Z,12.60
2022-08-29T22:47:51.757Z,12.65
2022-08-29T22:50:25.450Z,12.75
2022-08-29T22:53:01.094Z,12.90
2022-08-29T22:58:00.027Z,12.27
2022-08-29T23:00:30.697Z,12.77
2022-08-29T23:03:01.413Z,12.38
